sensor_id;sensor_type;location;lat;lon;timestamp;pressure;altitude;pressure_sealevel;temperature;humidity
84649;BME280;74877;52.392;16.888;2023-12-14T00:00:10;99775.0;;;3.87;90.02
84649;BME280;74877;52.392;16.888;2023-12-14T00:05:10;99776.0;;;3.83;89.66
84649;BME280;74877;52.392;16.888;2023-12-14T00:10:10;99785.0;;;3.76;90.15
84649;BME280;74877;52.392;16.888;2023-12-14T00:20:10;99790.0;;;3.66;91.4
84649;BME280;74877;52.392;16.888;2023-12-14T00:25:10;99788.0;;;3.55;92.12
84649;BME280;74877;52.392;16.888;2023-12-14T00:30:10;99793.0;;;3.54;92.4
84649;BME280;74877;52.392;16.888;2023-12-14T00:35:10;99794.0;;;3.59;92.31
84649;BME280;74877;52.392;16.888;2023-12-14T00:40:11;99802.0;;;3.59;92.39
84649;BME280;74877;52.392;16.888;2023-12-14T00:45:10;99803.0;;;3.56;92.36
84649;BME280;74877;52.392;16.888;2023-12-14T00:50:10;99808.0;;;3.57;92.25
84649;BME280;74877;52.392;16.888;2023-12-14T00:55:11;99821.0;;;3.62;91.77
84649;BME280;74877;52.392;16.888;2023-12-14T01:00:10;99831.0;;;3.6;91.53
84649;BME280;74877;52.392;16.888;2023-12-14T01:05:10;99833.0;;;3.54;92.04
84649;BME280;74877;52.392;16.888;2023-12-14T01:20:11;99852.0;;;3.69;91.52
84649;BME280;74877;52.392;16.888;2023-12-14T01:25:10;99850.0;;;3.54;91.39
84649;BME280;74877;52.392;16.888;2023-12-14T01:30:10;99862.0;;;3.58;91.63
84649;BME280;74877;52.392;16.888;2023-12-14T01:35:10;99861.0;;;3.57;91.33
84649;BME280;74877;52.392;16.888;2023-12-14T01:40:10;99861.0;;;3.47;91.92
84649;BME280;74877;52.392;16.888;2023-12-14T01:45:11;99862.0;;;3.49;92.09
84649;BME280;74877;52.392;16.888;2023-12-14T01:50:10;99860.0;;;3.43;92.52
84649;BME280;74877;52.392;16.888;2023-12-14T02:00:10;99862.0;;;3.59;92.26
84649;BME280;74877;52.392;16.888;2023-12-14T02:05:10;99860.0;;;3.64;92.04
84649;BME280;74877;52.392;16.888;2023-12-14T02:10:11;99861.0;;;3.59;92.12
84649;BME280;74877;52.392;16.888;2023-12-14T02:15:10;99868.0;;;3.47;91.75
84649;BME280;74877;52.392;16.888;2023-12-14T02:20:10;99870.0;;;3.42;91.83
84649;BME280;74877;52.392;16.888;2023-12-14T02:25:11;99876.0;;;3.46;91.98
84649;BME280;74877;52.392;16.888;2023-12-14T02:30:10;99879.0;;;3.47;91.85
84649;BME280;74877;52.392;16.888;2023-12-14T02:35:10;99879.0;;;3.47;90.8
84649;BME280;74877;52.392;16.888;2023-12-14T02:40:10;99896.0;;;3.46;91.17
84649;BME280;74877;52.392;16.888;2023-12-14T02:45:10;99898.0;;;3.31;90.97
84649;BME280;74877;52.392;16.888;2023-12-14T02:50:11;99904.0;;;3.33;91.07
84649;BME280;74877;52.392;16.888;2023-12-14T02:55:10;99906.0;;;3.34;90.66
84649;BME280;74877;52.392;16.888;2023-12-14T03:00:10;99914.0;;;3.36;91.15
84649;BME280;74877;52.392;16.888;2023-12-14T03:05:10;99916.0;;;3.35;91.19
84649;BME280;74877;52.392;16.888;2023-12-14T03:15:11;99934.0;;;3.41;90.8
84649;BME280;74877;52.392;16.888;2023-12-14T03:20:10;99939.0;;;3.27;90.82
84649;BME280;74877;52.392;16.888;2023-12-14T03:25:10;99947.0;;;3.22;91.0
84649;BME280;74877;52.392;16.888;2023-12-14T03:30:10;99945.0;;;3.16;91.05
84649;BME280;74877;52.392;16.888;2023-12-14T03:35:10;99955.0;;;3.11;90.9
84649;BME280;74877;52.392;16.888;2023-12-14T03:40:11;99963.0;;;3.02;90.77
84649;BME280;74877;52.392;16.888;2023-12-14T03:45:10;99968.0;;;3.02;91.23
84649;BME280;74877;52.392;16.888;2023-12-14T03:50:10;99974.0;;;2.94;91.2
84649;BME280;74877;52.392;16.888;2023-12-14T04:00:10;99984.0;;;2.94;91.24
84649;BME280;74877;52.392;16.888;2023-12-14T04:05:10;99992.0;;;2.99;91.16
84649;BME280;74877;52.392;16.888;2023-12-14T04:10:10;99991.0;;;2.96;90.85
84649;BME280;74877;52.392;16.888;2023-12-14T04:15:10;99988.0;;;2.93;91.09
84649;BME280;74877;52.392;16.888;2023-12-14T04:25:10;100007.0;;;2.91;91.07
84649;BME280;74877;52.392;16.888;2023-12-14T04:30:10;100007.0;;;2.87;91.43
84649;BME280;74877;52.392;16.888;2023-12-14T04:35:10;100008.0;;;2.8;91.35
84649;BME280;74877;52.392;16.888;2023-12-14T04:40:10;100014.0;;;2.72;91.44
84649;BME280;74877;52.392;16.888;2023-12-14T04:45:11;100014.0;;;2.76;91.74
84649;BME280;74877;52.392;16.888;2023-12-14T04:50:10;100020.0;;;2.71;91.83
84649;BME280;74877;52.392;16.888;2023-12-14T04:55:10;100028.0;;;2.7;91.97
84649;BME280;74877;52.392;16.888;2023-12-14T05:05:10;100031.0;;;2.73;91.5
84649;BME280;74877;52.392;16.888;2023-12-14T05:10:10;100036.0;;;2.76;91.52
84649;BME280;74877;52.392;16.888;2023-12-14T05:20:10;100046.0;;;3.07;90.34
84649;BME280;74877;52.392;16.888;2023-12-14T05:25:11;100060.0;;;2.94;90.47
84649;BME280;74877;52.392;16.888;2023-12-14T05:35:10;100077.0;;;2.82;90.43
84649;BME280;74877;52.392;16.888;2023-12-14T05:40:10;100085.0;;;2.77;90.65
84649;BME280;74877;52.392;16.888;2023-12-14T05:45:10;100091.0;;;2.66;90.62
84649;BME280;74877;52.392;16.888;2023-12-14T05:50:11;100110.0;;;2.71;90.56
84649;BME280;74877;52.392;16.888;2023-12-14T05:55:10;100122.0;;;2.65;90.87
84649;BME280;74877;52.392;16.888;2023-12-14T06:00:10;100128.0;;;2.66;90.88
84649;BME280;74877;52.392;16.888;2023-12-14T06:05:10;100126.0;;;2.58;90.93
84649;BME280;74877;52.392;16.888;2023-12-14T06:15:11;100149.0;;;2.82;90.1
84649;BME280;74877;52.392;16.888;2023-12-14T06:25:10;100175.0;;;2.63;90.25
84649;BME280;74877;52.392;16.888;2023-12-14T06:40:10;100196.0;;;2.64;90.26
84649;BME280;74877;52.392;16.888;2023-12-14T06:45:10;100211.0;;;2.62;90.21
84649;BME280;74877;52.392;16.888;2023-12-14T06:50:10;100215.0;;;2.58;90.38
84649;BME280;74877;52.392;16.888;2023-12-14T06:55:10;100223.0;;;2.53;90.12
84649;BME280;74877;52.392;16.888;2023-12-14T07:05:10;100232.0;;;2.44;90.31
84649;BME280;74877;52.392;16.888;2023-12-14T07:10:10;100237.0;;;2.37;90.3
84649;BME280;74877;52.392;16.888;2023-12-14T07:15:11;100239.0;;;2.46;90.3
84649;BME280;74877;52.392;16.888;2023-12-14T07:20:10;100246.0;;;2.4;90.75
84649;BME280;74877;52.392;16.888;2023-12-14T07:25:10;100257.0;;;2.39;91.02
84649;BME280;74877;52.392;16.888;2023-12-14T07:30:11;100262.0;;;2.32;90.74
84649;BME280;74877;52.392;16.888;2023-12-14T07:35:10;100270.0;;;2.29;91.37
84649;BME280;74877;52.392;16.888;2023-12-14T07:40:10;100276.0;;;2.24;90.99
84649;BME280;74877;52.392;16.888;2023-12-14T07:45:10;100290.0;;;2.21;90.69
84649;BME280;74877;52.392;16.888;2023-12-14T07:50:10;100293.0;;;2.25;90.8
